< < Back
Terminal Aerodrome Forecast


Current Version              Previous Versions:   1  2  3  4  5  6  7  8  9  

Terminal Aerodrome Forecast

355
FTUS42 KMLB 240500
TAFMCO
TAF
KMCO 240520Z 2406/2506 01005KT P6SM FEW250
     FM241400 04011KT P6SM FEW035 FEW250
     FM242300 01008KT P6SM FEW250=

Latest METAR

761
SAUS70 KWBC 240800 RRD
MTRMCO
METAR KMCO 240753Z 36007KT 10SM FEW030 FEW040 17/14 A2996 RMK AO2 SLP144
T01720139


USA.gov is the U.S. government's official web portal to all federal, state and local government web resources and services.